Terminal Aerodrome Forecast
Issued by NWS Grand Forks, ND

Home | Current Version | Previous Version | Graphics & Text | Print | Product List | Glossary On
Versions: 1 2 3 4 5 6 7 8 9 10 11 12 13 14 15 16 17 18 19 20 21 22 23 24
678
FTUS43 KFGF 062320
TAFGFK
TAF
KGFK 062320Z 0700/0724 18012KT P6SM SCT040 OVC100
     FM070100 20009KT P6SM SCT035 BKN070
     FM070200 23015G22KT P6SM BKN050
     FM070500 26018G27KT P6SM BKN025 OVC050
     FM070700 28022G29KT 2SM -SN OVC012
     FM071700 30030G40KT 1/4SM SN BLSN BKN008 OVC010=

USA.gov is the U.S. government's official web portal to all federal, state and local government web resources and services.